createdAt,value
2023-03-06T00:02:17.620Z,2.48
2023-03-06T00:07:21.740Z,2.49
2023-03-06T00:12:24.451Z,2.54
2023-03-06T00:17:28.819Z,2.64
2023-03-06T00:22:32.873Z,2.61
2023-03-06T00:27:36.505Z,2.50
2023-03-06T00:32:39.194Z,2.57
2023-03-06T00:37:43.620Z,2.56
2023-03-06T00:42:46.964Z,2.40
2023-03-06T00:47:49.681Z,2.39
2023-03-06T00:52:53.838Z,2.36
2023-03-06T00:57:56.563Z,2.49
2023-03-06T01:02:59.293Z,2.37
2023-03-06T01:08:03.923Z,2.33
2023-03-06T01:13:07.654Z,2.38
2023-03-06T01:18:10.366Z,2.36
2023-03-06T01:23:14.487Z,2.33
2023-03-06T01:28:17.180Z,2.34
2023-03-06T01:33:19.989Z,2.31
2023-03-06T01:38:24.377Z,2.31
2023-03-06T01:43:29.994Z,2.33
2023-03-06T01:48:32.784Z,2.42
2023-03-06T01:53:38.045Z,2.40
2023-03-06T01:58:41.507Z,2.42
2023-03-06T02:03:46.028Z,2.47
2023-03-06T02:08:51.311Z,2.46
2023-03-06T02:13:55.115Z,2.36
2023-03-06T02:19:00.195Z,2.51
2023-03-06T02:24:14.642Z,2.48
2023-03-06T02:29:23.534Z,2.46
2023-03-06T02:34:51.514Z,2.53
2023-03-06T02:40:02.855Z,2.46
2023-03-06T02:45:11.414Z,2.48
2023-03-06T02:50:14.124Z,2.50
2023-03-06T02:55:17.134Z,2.39
2023-03-06T03:00:22.121Z,2.27
2023-03-06T03:05:24.991Z,2.25
2023-03-06T03:10:34.192Z,2.38
2023-03-06T03:15:38.459Z,2.48
2023-03-06T03:20:43.475Z,2.43
2023-03-06T03:25:46.331Z,2.41
2023-03-06T03:30:50.956Z,2.38
2023-03-06T03:35:57.847Z,2.29
2023-03-06T03:41:02.252Z,1.70
2023-03-06T03:46:07.391Z,1.85
2023-03-06T03:51:11.977Z,1.62
2023-03-06T03:56:19.098Z,1.53
2023-03-06T04:01:31.567Z,1.62
2023-03-06T04:06:34.921Z,1.81
2023-03-06T04:11:38.619Z,1.95
2023-03-06T04:16:42.902Z,1.84
2023-03-06T04:21:45.710Z,1.74
2023-03-06T04:26:49.417Z,1.85
2023-03-06T04:31:53.628Z,1.81
2023-03-06T04:36:56.466Z,1.67
2023-03-06T04:41:59.678Z,1.58
2023-03-06T04:47:03.871Z,1.51
2023-03-06T04:52:07.047Z,1.50
2023-03-06T04:57:10.855Z,1.42
2023-03-06T05:02:14.982Z,1.44
2023-03-06T05:07:17.734Z,1.51
2023-03-06T05:12:20.532Z,1.56
2023-03-06T05:17:24.632Z,1.47
2023-03-06T05:22:27.480Z,1.55
2023-03-06T05:27:30.245Z,1.64
2023-03-06T05:32:35.647Z,1.53
2023-03-06T05:37:38.550Z,1.66
2023-03-06T05:42:41.455Z,1.64
2023-03-06T05:47:45.533Z,1.60
2023-03-06T05:52:48.252Z,1.55
2023-03-06T05:57:51.173Z,1.54
2023-03-06T06:02:55.319Z,1.57
2023-03-06T06:07:58.051Z,1.47
2023-03-06T06:13:00.822Z,1.50
2023-03-06T06:18:05.131Z,1.43
2023-03-06T06:23:07.929Z,1.47
2023-03-06T06:28:12.347Z,1.57
2023-03-06T06:33:16.490Z,1.55
2023-03-06T06:38:19.776Z,1.39
2023-03-06T06:43:22.543Z,1.45
2023-03-06T06:48:26.689Z,1.54
2023-03-06T06:53:29.546Z,1.52
2023-03-06T06:58:32.253Z,1.52
2023-03-06T07:03:36.526Z,1.53
2023-03-06T07:08:39.297Z,1.58
2023-03-06T07:13:42.076Z,1.44
2023-03-06T07:18:46.349Z,1.56
2023-03-06T07:23:49.066Z,1.68
2023-03-06T07:28:53.733Z,1.55
2023-03-06T07:33:57.939Z,2.13
2023-03-06T07:39:00.758Z,1.89
2023-03-06T07:44:03.720Z,1.95
2023-03-06T07:49:07.885Z,1.99
2023-03-06T07:54:10.743Z,2.03
2023-03-06T07:59:13.493Z,1.85
2023-03-06T08:04:17.710Z,1.98
2023-03-06T08:09:20.510Z,2.20
2023-03-06T08:14:23.265Z,2.28
2023-03-06T08:19:27.410Z,2.04
2023-03-06T08:24:30.167Z,2.20
2023-03-06T08:29:32.907Z,2.16
2023-03-06T08:34:39.800Z,2.11
2023-03-06T08:39:42.557Z,2.28
2023-03-06T08:44:45.425Z,2.17
2023-03-06T08:49:49.535Z,2.05
2023-03-06T08:54:52.258Z,1.90
2023-03-06T08:59:54.992Z,1.96
2023-03-06T09:04:59.453Z,1.94
2023-03-06T09:10:02.454Z,1.91
2023-03-06T09:15:05.860Z,1.91
2023-03-06T09:20:11.883Z,1.95
2023-03-06T09:25:17.496Z,2.05
2023-03-06T09:30:20.279Z,1.95
2023-03-06T09:35:24.629Z,2.00
2023-03-06T09:40:40.190Z,1.99
2023-03-06T09:45:43.065Z,2.13
2023-03-06T09:50:52.357Z,1.90
2023-03-06T09:56:00.927Z,1.83
2023-03-06T10:01:07.134Z,1.81
2023-03-06T10:06:14.371Z,1.97
2023-03-06T10:11:23.213Z,2.21
2023-03-06T10:16:29.676Z,2.06
2023-03-06T10:21:44.272Z,2.02
2023-03-06T10:26:51.687Z,2.15
2023-03-06T10:32:01.503Z,2.15
2023-03-06T10:37:21.592Z,2.08
2023-03-06T10:42:24.982Z,2.04
2023-03-06T10:47:34.933Z,1.79
2023-03-06T10:52:39.328Z,1.72
2023-03-06T10:57:45.428Z,1.87
2023-03-06T11:02:47.948Z,2.18
2023-03-06T11:07:56.613Z,2.20
2023-03-06T11:12:59.510Z,1.81
2023-03-06T11:18:04.398Z,1.46
2023-03-06T11:23:12.125Z,1.62
2023-03-06T11:28:19.814Z,1.86
2023-03-06T11:33:28.403Z,2.03
2023-03-06T11:38:40.056Z,2.16
2023-03-06T11:43:50.649Z,2.33
2023-03-06T11:48:54.850Z,2.56
2023-03-06T11:53:59.841Z,2.63
2023-03-06T11:59:09.486Z,3.09
2023-03-06T12:04:36.475Z,3.43
2023-03-06T12:09:46.803Z,3.72
2023-03-06T12:15:12.943Z,3.88
2023-03-06T12:20:24.827Z,3.76
2023-03-06T12:25:34.201Z,3.22
2023-03-06T12:31:02.382Z,3.34
2023-03-06T12:36:18.374Z,4.04
2023-03-06T12:41:33.322Z,4.36
2023-03-06T12:46:39.120Z,4.17
2023-03-06T12:51:42.570Z,4.00
2023-03-06T12:56:48.572Z,4.62
2023-03-06T13:02:03.876Z,4.73
2023-03-06T13:07:26.253Z,4.53
2023-03-06T13:12:39.986Z,4.27
2023-03-06T13:17:42.701Z,4.19
2023-03-06T13:22:47.274Z,4.22
2023-03-06T13:28:03.745Z,3.97
2023-03-06T13:33:52.555Z,4.01
2023-03-06T13:38:57.562Z,3.97
2023-03-06T13:44:03.232Z,3.91
2023-03-06T13:49:12.587Z,3.81
2023-03-06T13:54:26.892Z,3.57
2023-03-06T13:59:54.412Z,3.67
2023-03-06T14:05:01.143Z,3.70
2023-03-06T14:10:17.634Z,4.01
2023-03-06T14:15:24.309Z,4.01
2023-03-06T14:20:34.365Z,4.22
2023-03-06T14:25:37.330Z,4.23
2023-03-06T14:30:50.011Z,3.64
2023-03-06T14:35:54.163Z,4.10
2023-03-06T14:40:58.336Z,4.04
2023-03-06T14:46:05.045Z,4.37
2023-03-06T14:51:12.737Z,4.18
2023-03-06T14:56:18.506Z,4.14
2023-03-06T15:01:30.344Z,4.22
2023-03-06T15:06:36.567Z,4.28
2023-03-06T15:11:58.312Z,4.33
2023-03-06T15:17:23.714Z,4.36
2023-03-06T15:22:32.400Z,4.17
2023-03-06T15:27:35.319Z,4.39
2023-03-06T15:32:42.485Z,4.41
2023-03-06T15:37:45.249Z,4.33
2023-03-06T15:42:49.904Z,4.40
2023-03-06T15:47:55.528Z,4.30
2023-03-06T15:52:58.369Z,4.04
2023-03-06T15:58:02.579Z,4.08
2023-03-06T16:03:07.145Z,3.99
2023-03-06T16:08:10.873Z,3.93
2023-03-06T16:13:19.120Z,4.04
2023-03-06T16:18:23.248Z,3.92
2023-03-06T16:23:25.975Z,4.00
2023-03-06T16:28:28.714Z,4.02
2023-03-06T16:33:32.806Z,3.99
2023-03-06T16:38:35.548Z,3.85
2023-03-06T16:43:38.320Z,3.77
2023-03-06T16:48:42.427Z,3.73
2023-03-06T16:53:45.819Z,3.63
2023-03-06T16:58:48.890Z,3.49
2023-03-06T17:03:52.997Z,3.41
2023-03-06T17:08:57.886Z,3.36
2023-03-06T17:14:00.640Z,3.23
2023-03-06T17:19:04.822Z,3.24
2023-03-06T17:24:07.812Z,3.18
2023-03-06T17:29:11.983Z,3.18
2023-03-06T17:34:16.243Z,3.05
2023-03-06T17:39:19.695Z,3.06
2023-03-06T17:44:22.442Z,3.01
2023-03-06T17:49:26.578Z,3.06
2023-03-06T17:54:29.963Z,2.91
2023-03-06T17:59:34.342Z,2.84
2023-03-06T18:04:38.466Z,2.88
2023-03-06T18:09:42.466Z,2.90
2023-03-06T18:14:45.254Z,2.85
2023-03-06T18:19:49.349Z,2.89
2023-03-06T18:24:52.093Z,2.88
2023-03-06T18:29:55.523Z,2.96
2023-03-06T18:34:59.620Z,2.98
2023-03-06T18:40:02.358Z,2.93
2023-03-06T18:45:05.656Z,2.98
2023-03-06T18:50:16.273Z,2.94
2023-03-06T18:55:19.044Z,2.86
2023-03-06T19:00:22.602Z,2.90
2023-03-06T19:05:26.706Z,2.93
2023-03-06T19:10:31.055Z,2.96
2023-03-06T19:15:34.091Z,2.96
2023-03-06T19:20:38.439Z,2.94
2023-03-06T19:25:41.161Z,2.89
2023-03-06T19:30:43.895Z,2.87
2023-03-06T19:35:48.050Z,2.89
2023-03-06T19:40:51.449Z,2.83
2023-03-06T19:45:54.378Z,2.82
2023-03-06T19:51:01.621Z,2.82
2023-03-06T19:56:06.006Z,2.85
2023-03-06T20:01:09.961Z,2.80
2023-03-06T20:06:16.310Z,2.76
2023-03-06T20:11:19.605Z,2.83
2023-03-06T20:16:22.396Z,2.85
2023-03-06T20:21:26.912Z,2.86
2023-03-06T20:26:30.716Z,2.83
2023-03-06T20:31:33.591Z,2.83
2023-03-06T20:36:40.387Z,2.78
2023-03-06T20:41:44.027Z,2.74
2023-03-06T20:46:47.356Z,2.74
2023-03-06T20:51:51.578Z,2.77
2023-03-06T20:56:54.316Z,2.75
2023-03-06T21:01:57.228Z,2.72
2023-03-06T21:07:01.339Z,2.74
2023-03-06T21:12:04.431Z,2.73
2023-03-06T21:17:07.132Z,2.78
2023-03-06T21:22:11.364Z,2.74
2023-03-06T21:27:14.503Z,2.70
2023-03-06T21:32:17.252Z,2.75
2023-03-06T21:37:21.350Z,2.78
2023-03-06T21:42:24.090Z,2.70
2023-03-06T21:47:26.797Z,2.73
2023-03-06T21:52:30.871Z,2.76
2023-03-06T21:57:33.626Z,2.74
2023-03-06T22:02:36.440Z,2.80
2023-03-06T22:07:41.198Z,2.81
2023-03-06T22:12:45.739Z,2.81
2023-03-06T22:17:48.717Z,2.84
2023-03-06T22:22:52.894Z,2.85
2023-03-06T22:27:55.658Z,2.80
2023-03-06T22:32:58.619Z,2.77
2023-03-06T22:38:04.491Z,2.78
2023-03-06T22:43:07.232Z,2.81
2023-03-06T22:48:11.327Z,2.83
2023-03-06T22:53:15.619Z,2.76
2023-03-06T22:58:18.328Z,2.76
2023-03-06T23:03:21.114Z,2.75
2023-03-06T23:08:25.233Z,2.78
2023-03-06T23:13:27.902Z,2.70
2023-03-06T23:18:49.418Z,2.68
2023-03-06T23:24:11.952Z,2.68
2023-03-06T23:29:14.710Z,2.60
2023-03-06T23:34:17.437Z,2.66
2023-03-06T23:39:21.580Z,2.65
2023-03-06T23:44:24.387Z,2.64
2023-03-06T23:49:27.132Z,2.57
2023-03-06T23:54:31.220Z,2.59
2023-03-06T23:59:33.984Z,2.57
